Time;durP1;ratioP1;P1;durP2;ratioP2;P2;SDS_P1;SDS_P2;PMS_P1;PMS_P2;Temp;Humidity;BMP_temperature;BMP_pressure;BME280_temperature;BME280_humidity;BME280_pressure;Samples;Min_cycle;Max_cycle;Signal;HPM_P1;HPM_P2
2021/05/04 00:00:45;;;;;;;11.38;2.47;;;11.00;99.90;;;;;;5055584;28;20175;-82
2021/05/04 00:03:11;;;;;;;5.05;2.10;;;10.80;99.90;;;;;;5054682;28;20187;-81
2021/05/04 00:05:36;;;;;;;10.18;2.58;;;10.60;99.90;;;;;;5054322;28;20225;-82
2021/05/04 00:08:02;;;;;;;2.72;2.08;;;10.60;99.90;;;;;;5037936;28;20640;-82
2021/05/04 00:10:28;;;;;;;4.85;2.53;;;10.50;99.90;;;;;;5040117;28;20640;-83
2021/05/04 00:12:53;;;;;;;4.60;2.20;;;10.40;99.90;;;;;;5071906;28;20247;-83
2021/05/04 00:15:19;;;;;;;11.50;2.42;;;10.40;99.90;;;;;;5075241;28;20674;-81
2021/05/04 00:17:45;;;;;;;7.70;2.72;;;10.30;99.90;;;;;;5054337;28;20640;-81
2021/05/04 00:20:11;;;;;;;7.15;2.25;;;10.10;99.90;;;;;;5054322;28;20182;-82
2021/05/04 00:22:37;;;;;;;4.32;2.17;;;10.00;99.90;;;;;;5055306;28;20251;-81
2021/05/04 00:25:03;;;;;;;5.95;2.40;;;9.90;99.90;;;;;;5036027;28;20782;-82
2021/05/04 00:27:29;;;;;;;4.78;2.38;;;9.80;99.90;;;;;;5056628;28;20175;-82
2021/05/04 00:29:55;;;;;;;4.13;2.28;;;9.80;99.90;;;;;;5046509;28;20172;-83
2021/05/04 00:32:20;;;;;;;7.40;3.08;;;9.70;99.90;;;;;;5053666;28;20521;-82
2021/05/04 00:34:46;;;;;;;6.18;2.65;;;9.60;99.90;;;;;;5055476;28;20179;-83
2021/05/04 00:37:12;;;;;;;7.38;2.30;;;9.50;99.90;;;;;;5054168;28;20167;-82
2021/05/04 00:39:38;;;;;;;2.85;2.40;;;9.50;99.90;;;;;;5054199;28;20207;-83
2021/05/04 00:42:04;;;;;;;7.03;2.60;;;9.40;99.90;;;;;;5053700;28;20711;-83
2021/05/04 00:44:30;;;;;;;9.27;2.92;;;9.30;99.90;;;;;;5054646;28;20286;-83
2021/05/04 00:46:56;;;;;;;10.05;2.72;;;9.30;99.90;;;;;;5053796;28;20201;-82
2021/05/04 00:49:21;;;;;;;8.95;2.90;;;9.30;99.90;;;;;;5053733;28;20175;-82
2021/05/04 00:51:49;;;;;;;5.03;3.30;;;9.20;99.90;;;;;;5054643;28;20175;-82
2021/05/04 00:54:17;;;;;;;3.40;2.60;;;9.10;99.90;;;;;;5053317;28;20202;-83
2021/05/04 00:56:43;;;;;;;5.63;2.70;;;9.10;99.90;;;;;;5053477;28;20175;-83
2021/05/04 00:59:11;;;;;;;6.70;2.97;;;9.00;99.90;;;;;;5053308;28;20191;-82
2021/05/04 01:01:36;;;;;;;4.68;3.00;;;9.00;99.90;;;;;;5054568;28;20171;-81
2021/05/04 01:04:03;;;;;;;2.92;2.70;;;9.00;99.90;;;;;;5054398;28;20179;-82
2021/05/04 01:06:29;;;;;;;4.22;3.20;;;8.90;99.90;;;;;;5054509;28;20167;-82
2021/05/04 01:08:54;;;;;;;7.28;3.53;;;8.90;99.90;;;;;;5054755;28;20172;-82
2021/05/04 01:11:20;;;;;;;8.25;3.08;;;8.90;99.90;;;;;;5053210;28;20175;-81
2021/05/04 01:13:49;;;;;;;5.95;3.20;;;8.90;99.90;;;;;;5053324;28;20191;-82
2021/05/04 01:16:15;;;;;;;6.97;3.13;;;8.90;99.90;;;;;;5053004;28;20627;-82
2021/05/04 01:18:41;;;;;;;3.08;2.88;;;8.90;99.90;;;;;;5053049;28;20270;-81
2021/05/04 01:21:06;;;;;;;6.45;4.20;;;9.00;99.90;;;;;;5054370;28;20182;-82
2021/05/04 01:23:34;;;;;;;9.85;3.95;;;9.00;99.90;;;;;;5036401;28;20329;-82
2021/05/04 01:26:01;;;;;;;3.95;3.33;;;9.00;99.90;;;;;;5052487;28;20163;-81
2021/05/04 01:28:26;;;;;;;3.40;3.15;;;9.00;99.90;;;;;;5054466;28;20174;-81
2021/05/04 01:30:52;;;;;;;6.13;3.45;;;9.00;99.90;;;;;;5054066;28;20176;-82
2021/05/04 01:33:17;;;;;;;6.57;3.67;;;9.00;99.90;;;;;;5052859;28;20564;-81
2021/05/04 01:35:43;;;;;;;5.40;3.45;;;9.00;99.90;;;;;;5052686;28;20682;-81
2021/05/04 01:38:09;;;;;;;3.35;3.15;;;9.00;99.90;;;;;;5052731;28;20163;-82
2021/05/04 01:40:34;;;;;;;3.55;3.17;;;9.00;99.90;;;;;;5054049;28;20505;-81
2021/05/04 01:43:00;;;;;;;4.20;3.17;;;9.00;99.90;;;;;;5053893;28;20246;-82
2021/05/04 01:45:26;;;;;;;8.15;3.38;;;9.10;99.90;;;;;;5053956;28;20262;-83
2021/05/04 01:47:51;;;;;;;5.90;3.47;;;9.10;99.90;;;;;;5052625;28;20198;-82
2021/05/04 01:50:17;;;;;;;4.88;2.70;;;9.20;99.90;;;;;;5052743;28;20201;-82
2021/05/04 01:52:42;;;;;;;9.27;2.50;;;9.20;99.90;;;;;;5052432;28;20203;-83
2021/05/04 01:55:09;;;;;;;3.33;3.03;;;9.30;99.90;;;;;;5053806;28;20711;-82
2021/05/04 01:57:35;;;;;;;7.10;2.78;;;9.40;99.90;;;;;;5053632;28;20175;-83
2021/05/04 02:00:01;;;;;;;5.30;2.63;;;9.40;99.90;;;;;;5053874;28;20497;-82
2021/05/04 02:02:27;;;;;;;7.05;2.67;;;9.40;99.90;;;;;;5032180;28;20180;-83
2021/05/04 02:04:54;;;;;;;2.90;2.70;;;9.50;99.90;;;;;;5032788;28;20198;-82
2021/05/04 02:07:19;;;;;;;2.92;2.30;;;9.50;99.90;;;;;;5032176;28;20165;-82
2021/05/04 02:09:45;;;;;;;3.17;2.55;;;9.50;99.90;;;;;;5048921;28;20172;-82
2021/05/04 02:12:11;;;;;;;6.97;2.47;;;9.50;99.90;;;;;;5045061;28;20167;-83
2021/05/04 02:14:36;;;;;;;4.82;2.40;;;9.50;99.90;;;;;;5035793;28;20274;-82
2021/05/04 02:17:02;;;;;;;4.93;2.03;;;9.40;99.90;;;;;;5051961;28;20628;-82
2021/05/04 02:19:28;;;;;;;3.33;2.15;;;9.50;99.90;;;;;;5052154;28;20168;-82
2021/05/04 02:21:53;;;;;;;5.25;2.58;;;9.50;99.90;;;;;;5053179;28;20175;-82
2021/05/04 02:24:19;;;;;;;6.22;2.30;;;9.50;99.90;;;;;;5053243;28;20293;-81
2021/05/04 02:26:45;;;;;;;4.13;2.28;;;9.50;99.90;;;;;;5053356;28;20237;-82
2021/05/04 02:29:10;;;;;;;3.42;2.05;;;9.60;99.90;;;;;;5053445;28;20250;-83
2021/05/04 02:31:36;;;;;;;2.28;2.08;;;9.60;99.90;;;;;;5051793;28;20179;-82
2021/05/04 02:34:02;;;;;;;5.18;1.98;;;9.60;99.90;;;;;;5051830;28;20703;-82
2021/05/04 02:36:27;;;;;;;2.35;1.88;;;9.60;99.90;;;;;;5052011;28;20167;-83
2021/05/04 02:38:53;;;;;;;4.68;1.90;;;9.50;99.90;;;;;;5053386;28;20163;-82
2021/05/04 02:41:18;;;;;;;5.00;1.67;;;9.60;99.90;;;;;;5061855;28;20187;-80
2021/05/04 02:43:44;;;;;;;1.92;1.70;;;9.60;99.90;;;;;;5077747;28;20170;-82
2021/05/04 02:46:10;;;;;;;2.22;2.03;;;9.60;99.90;;;;;;5061498;28;20179;-82
2021/05/04 02:48:40;;;;;;;2.67;1.67;;;9.70;99.90;;;;;;5034902;28;20180;-81
2021/05/04 02:51:11;;;;;;;5.15;1.65;;;9.70;99.90;;;;;;5051719;28;20175;-81
2021/05/04 02:53:37;;;;;;;2.75;1.70;;;9.70;99.90;;;;;;5051612;28;20548;-81
2021/05/04 02:56:05;;;;;;;3.97;1.88;;;9.80;99.90;;;;;;5052329;28;20210;-82
2021/05/04 02:58:31;;;;;;;2.03;1.88;;;9.80;99.90;;;;;;5055188;28;20168;-82
2021/05/04 03:00:56;;;;;;;9.13;2.03;;;9.80;99.90;;;;;;5075806;28;20156;-82
2021/05/04 03:03:23;;;;;;;5.32;1.95;;;9.80;99.90;;;;;;5042887;28;20198;-82
2021/05/04 03:05:49;;;;;;;5.70;2.25;;;9.90;99.90;;;;;;5053926;28;20172;-81
2021/05/04 03:08:15;;;;;;;2.50;1.60;;;9.90;99.90;;;;;;5054283;28;20217;-82
2021/05/04 03:10:41;;;;;;;1.45;1.10;;;10.00;99.90;;;;;;5055201;28;20172;-81
2021/05/04 03:13:06;;;;;;;2.17;1.70;;;10.00;99.90;;;;;;5060810;28;20195;-80
2021/05/04 03:15:32;;;;;;;7.97;1.92;;;10.00;99.90;;;;;;5076975;28;20179;-83
2021/05/04 03:17:58;;;;;;;6.28;1.50;;;10.00;99.90;;;;;;5062124;28;20180;-81
2021/05/04 03:20:24;;;;;;;5.78;1.60;;;10.10;99.90;;;;;;5053554;28;20171;-81
2021/05/04 03:22:49;;;;;;;3.80;1.40;;;10.10;99.90;;;;;;5055363;28;20308;-81
2021/05/04 03:25:15;;;;;;;2.55;1.38;;;10.10;99.90;;;;;;5055256;28;20199;-81
2021/05/04 03:27:40;;;;;;;3.08;2.00;;;10.10;99.90;;;;;;5055384;28;20198;-81
2021/05/04 03:30:08;;;;;;;1.33;1.20;;;10.10;99.90;;;;;;5055051;28;20175;-81
2021/05/04 03:32:34;;;;;;;4.15;1.40;;;10.10;99.90;;;;;;5056362;28;20198;-81
2021/05/04 03:34:59;;;;;;;2.65;1.25;;;10.20;99.90;;;;;;5055603;28;20591;-81
2021/05/04 03:37:25;;;;;;;3.17;1.63;;;10.10;99.90;;;;;;5056593;28;20615;-81
2021/05/04 03:39:51;;;;;;;2.53;1.35;;;10.20;99.90;;;;;;5055431;28;20213;-81
2021/05/04 03:42:17;;;;;;;2.88;1.85;;;10.20;99.90;;;;;;5055165;28;20178;-81
2021/05/04 03:44:42;;;;;;;2.80;1.38;;;10.20;99.90;;;;;;5055033;28;20536;-81
2021/05/04 03:47:08;;;;;;;6.68;1.67;;;10.20;99.90;;;;;;5038355;28;20175;-82
2021/05/04 03:49:34;;;;;;;8.98;1.70;;;10.20;99.90;;;;;;5061290;28;20178;-81
2021/05/04 03:51:59;;;;;;;4.68;1.50;;;10.20;99.90;;;;;;5058026;28;20175;-81
2021/05/04 03:54:25;;;;;;;11.23;2.45;;;10.20;99.90;;;;;;5074723;28;20697;-81
2021/05/04 03:56:51;;;;;;;2.20;1.40;;;10.20;99.90;;;;;;5074954;28;20198;-81
2021/05/04 03:59:17;;;;;;;1.30;1.20;;;10.20;99.90;;;;;;5057409;28;20168;-81
2021/05/04 04:01:43;;;;;;;3.80;1.50;;;10.20;99.90;;;;;;5054797;28;20174;-81
2021/05/04 04:04:08;;;;;;;3.05;1.70;;;10.20;99.90;;;;;;5054485;28;20266;-80
2021/05/04 04:06:34;;;;;;;8.27;1.30;;;10.20;99.90;;;;;;5055776;28;20203;-82
2021/05/04 04:09:00;;;;;;;4.32;1.40;;;10.20;99.90;;;;;;5054809;28;20172;-81
2021/05/04 04:11:25;;;;;;;3.90;1.50;;;10.20;99.90;;;;;;5056101;28;20171;-81
2021/05/04 04:13:51;;;;;;;4.60;1.30;;;10.30;99.90;;;;;;5055525;28;20207;-81
2021/05/04 04:16:16;;;;;;;1.80;1.27;;;10.30;99.90;;;;;;5054719;28;20186;-81
2021/05/04 04:18:42;;;;;;;4.38;1.50;;;10.30;99.90;;;;;;5055581;28;20175;-81
2021/05/04 04:21:08;;;;;;;7.20;1.33;;;10.30;99.90;;;;;;5054951;28;20689;-80
2021/05/04 04:23:33;;;;;;;5.38;1.55;;;10.40;99.90;;;;;;5055905;28;20183;-80
2021/05/04 04:25:59;;;;;;;4.28;1.60;;;10.40;99.90;;;;;;5054836;28;20168;-80
2021/05/04 04:28:25;;;;;;;2.00;1.20;;;10.40;99.90;;;;;;5055621;28;20524;-80
2021/05/04 04:30:51;;;;;;;4.10;1.50;;;10.50;99.90;;;;;;5055296;28;20183;-81
2021/05/04 04:33:24;;;;;;;3.17;1.55;;;10.50;99.90;;;;;;5055358;28;20206;-81
2021/05/04 04:35:49;;;;;;;3.75;1.50;;;10.60;99.90;;;;;;5055154;28;20624;-81
2021/05/04 04:38:15;;;;;;;1.33;1.23;;;10.60;99.90;;;;;;5055488;28;20161;-81
2021/05/04 04:40:41;;;;;;;7.93;1.80;;;10.60;99.90;;;;;;5055146;28;20198;-81
2021/05/04 04:43:06;;;;;;;1.20;1.10;;;10.60;99.90;;;;;;5053995;28;20178;-81
2021/05/04 04:45:32;;;;;;;3.33;1.35;;;10.60;99.90;;;;;;5054906;28;20207;-81
2021/05/04 04:47:57;;;;;;;11.23;1.63;;;10.60;99.90;;;;;;5053509;28;20183;-83
2021/05/04 04:50:23;;;;;;;3.33;1.50;;;10.70;99.90;;;;;;5054868;28;20539;-81
2021/05/04 04:52:48;;;;;;;5.53;1.92;;;10.70;99.90;;;;;;5053853;28;20226;-81
2021/05/04 04:55:14;;;;;;;1.88;1.17;;;10.70;99.90;;;;;;5053757;28;20214;-81
2021/05/04 04:57:40;;;;;;;10.68;1.98;;;10.80;99.90;;;;;;5054767;28;20202;-80
2021/05/04 05:00:06;;;;;;;3.50;1.60;;;10.80;99.90;;;;;;5054793;28;20178;-81
2021/05/04 05:02:32;;;;;;;3.40;1.30;;;10.80;99.90;;;;;;5054596;28;20814;-81
2021/05/04 05:04:57;;;;;;;10.05;1.58;;;10.60;99.90;;;;;;5036848;28;20173;-81
2021/05/04 05:07:23;;;;;;;1.83;1.38;;;10.50;99.90;;;;;;5054949;28;20520;-81
2021/05/04 05:09:48;;;;;;;2.17;1.33;;;10.40;99.90;;;;;;5055300;28;20258;-81
2021/05/04 05:12:14;;;;;;;1.70;1.60;;;10.20;99.90;;;;;;5070138;28;20152;-82
2021/05/04 05:14:41;;;;;;;3.55;1.30;;;10.10;99.90;;;;;;5078168;28;20170;-83
2021/05/04 05:17:07;;;;;;;3.15;1.50;;;10.00;99.90;;;;;;5054606;28;20225;-81
2021/05/04 05:19:33;;;;;;;1.50;1.33;;;10.00;99.90;;;;;;5054420;28;20180;-81
2021/05/04 05:22:01;;;;;;;2.63;1.52;;;10.00;99.90;;;;;;5054414;28;20171;-80
2021/05/04 05:24:26;;;;;;;4.10;1.63;;;10.00;99.90;;;;;;5052830;28;20670;-81
2021/05/04 05:26:52;;;;;;;2.05;1.83;;;10.00;99.90;;;;;;5055108;28;20176;-81
2021/05/04 05:29:18;;;;;;;5.47;1.70;;;10.00;99.90;;;;;;5037362;28;20253;-80
2021/05/04 05:31:44;;;;;;;2.88;1.38;;;10.20;99.90;;;;;;5074674;28;20169;-82
2021/05/04 05:34:10;;;;;;;6.57;1.90;;;10.50;99.90;;;;;;5035154;28;20208;-80
2021/05/04 05:36:35;;;;;;;5.97;1.77;;;10.60;99.90;;;;;;5034582;28;20178;-80
2021/05/04 05:39:02;;;;;;;4.93;1.65;;;10.70;99.90;;;;;;5035634;28;20179;-81
2021/05/04 05:41:28;;;;;;;4.20;1.60;;;10.80;99.90;;;;;;5052935;28;20167;-81
2021/05/04 05:43:54;;;;;;;5.55;2.00;;;10.80;99.90;;;;;;5052060;28;20179;-81
2021/05/04 05:46:20;;;;;;;5.65;2.40;;;10.90;99.90;;;;;;5052199;28;20675;-80
2021/05/04 05:48:46;;;;;;;8.70;1.88;;;10.90;99.90;;;;;;5052522;28;20167;-81
2021/05/04 05:51:11;;;;;;;10.82;2.28;;;10.90;99.90;;;;;;5054826;28;20174;-89
2021/05/04 05:53:38;;;;;;;8.20;1.90;;;11.00;99.90;;;;;;5054964;28;20195;-90
2021/05/04 05:56:05;;;;;;;7.97;2.65;;;11.00;99.90;;;;;;5055100;28;20309;-90
2021/05/04 05:58:31;;;;;;;8.18;2.03;;;11.00;99.90;;;;;;5054514;28;20178;-88
2021/05/04 06:00:56;;;;;;;4.72;1.90;;;11.10;99.90;;;;;;5053874;28;20171;-89
2021/05/04 06:03:23;;;;;;;8.25;2.53;;;11.10;99.90;;;;;;5054985;28;20525;-89
2021/05/04 06:05:51;;;;;;;19.27;3.80;;;11.10;99.90;;;;;;5054302;28;20175;-89
2021/05/04 06:08:17;;;;;;;12.23;2.97;;;11.10;99.90;;;;;;5053395;28;20172;-89
2021/05/04 06:10:43;;;;;;;8.45;2.63;;;11.10;99.90;;;;;;5053887;28;20181;-88
2021/05/04 06:13:09;;;;;;;13.15;2.95;;;11.10;99.90;;;;;;5052854;28;20195;-89
2021/05/04 06:15:39;;;;;;;10.40;2.28;;;11.20;99.90;;;;;;5033062;28;20187;-89
2021/05/04 06:18:05;;;;;;;15.25;2.33;;;11.30;99.90;;;;;;5049986;28;20160;-89
2021/05/04 06:20:31;;;;;;;15.35;2.53;;;11.30;99.90;;;;;;5046653;28;20236;-89
2021/05/04 06:22:56;;;;;;;12.93;3.08;;;11.30;99.90;;;;;;5054106;28;20524;-88
2021/05/04 06:25:22;;;;;;;10.48;2.70;;;11.30;99.90;;;;;;5054319;28;20232;-89
2021/05/04 06:27:48;;;;;;;16.77;3.10;;;11.30;99.90;;;;;;5053083;28;20179;-89
2021/05/04 06:30:14;;;;;;;19.23;3.33;;;11.30;99.90;;;;;;5053979;28;20175;-92
2021/05/04 06:32:41;;;;;;;19.50;3.08;;;11.30;99.90;;;;;;5052499;28;20293;-90
2021/05/04 06:35:08;;;;;;;12.93;2.53;;;11.30;99.90;;;;;;5053649;28;20167;-89
2021/05/04 06:37:34;;;;;;;15.23;2.92;;;11.30;99.90;;;;;;5053585;28;20159;-89
2021/05/04 06:40:00;;;;;;;22.90;3.33;;;11.30;99.90;;;;;;5054207;28;20228;-90
2021/05/04 06:42:27;;;;;;;8.57;2.75;;;11.30;99.90;;;;;;5052901;28;20266;-90
2021/05/04 06:44:53;;;;;;;9.65;2.10;;;11.30;99.90;;;;;;5052811;28;20172;-88
2021/05/04 06:47:18;;;;;;;7.90;2.38;;;11.30;99.90;;;;;;5053062;28;20297;-89
2021/05/04 06:49:44;;;;;;;13.15;2.75;;;11.10;99.90;;;;;;5053047;28;20526;-90
2021/05/04 06:52:11;;;;;;;17.42;3.03;;;10.90;99.90;;;;;;5036146;28;20182;-79
2021/05/04 06:54:37;;;;;;;18.67;3.58;;;10.80;99.90;;;;;;5054978;28;20201;-89
2021/05/04 06:57:02;;;;;;;8.93;2.50;;;10.90;99.90;;;;;;5056844;28;20175;-90
2021/05/04 06:59:28;;;;;;;13.93;2.72;;;11.00;99.90;;;;;;5057273;28;20175;-92
2021/05/04 07:01:53;;;;;;;18.52;4.03;;;11.20;99.90;;;;;;5058039;28;20172;-89
2021/05/04 07:04:19;;;;;;;16.80;3.22;;;11.30;99.90;;;;;;5056844;28;20188;-89
2021/05/04 07:06:45;;;;;;;13.07;3.05;;;11.20;99.90;;;;;;5056887;28;20217;-91
2021/05/04 07:09:11;;;;;;;14.85;2.70;;;11.30;99.90;;;;;;5039975;28;20186;-88
2021/05/04 07:11:36;;;;;;;15.82;2.78;;;11.40;99.90;;;;;;5057691;28;20174;-88
2021/05/04 07:14:04;;;;;;;14.48;3.42;;;11.50;99.90;;;;;;5039412;28;20293;-90
2021/05/04 07:16:30;;;;;;;18.77;3.28;;;11.80;99.90;;;;;;5057701;28;20172;-91
2021/05/04 07:18:55;;;;;;;14.15;3.17;;;11.90;99.90;;;;;;5055931;28;20171;-91
2021/05/04 07:21:22;;;;;;;21.50;3.75;;;11.90;99.90;;;;;;5056550;28;20175;-90
2021/05/04 07:23:48;;;;;;;16.83;3.10;;;12.00;99.90;;;;;;5056081;28;20179;-89
2021/05/04 07:26:14;;;;;;;16.75;3.53;;;12.10;99.90;;;;;;5056168;28;20717;-88
2021/05/04 07:28:40;;;;;;;18.75;3.60;;;12.10;99.90;;;;;;5026010;28;20262;-87
2021/05/04 07:31:06;;;;;;;19.90;3.40;;;12.30;99.90;;;;;;5056539;28;20592;-90
2021/05/04 07:33:31;;;;;;;15.65;3.40;;;12.60;99.90;;;;;;5056971;28;20238;-89
2021/05/04 07:35:58;;;;;;;17.50;3.13;;;12.70;99.90;;;;;;5056524;28;20531;-90
2021/05/04 07:38:24;;;;;;;14.23;3.10;;;12.70;99.90;;;;;;5044077;28;20175;-90
2021/05/04 07:40:50;;;;;;;12.73;3.08;;;12.80;99.90;;;;;;5075821;28;20164;-89
2021/05/04 07:43:16;;;;;;;19.00;3.83;;;12.50;99.90;;;;;;5079375;28;20174;-87
2021/05/04 07:45:41;;;;;;;15.60;3.05;;;12.30;99.90;;;;;;5074608;28;20214;-90
2021/05/04 07:48:10;;;;;;;14.45;3.25;;;12.30;99.90;;;;;;5039499;28;20270;-91
2021/05/04 07:50:36;;;;;;;19.25;3.15;;;12.30;99.90;;;;;;5055427;28;20182;-88
2021/05/04 07:53:02;;;;;;;19.60;4.20;;;12.20;99.90;;;;;;5055782;28;20195;-88
2021/05/04 07:55:28;;;;;;;17.58;3.35;;;12.20;99.90;;;;;;5055475;28;20183;-88
2021/05/04 07:57:54;;;;;;;19.60;3.60;;;12.30;99.90;;;;;;5044370;28;20853;-91
2021/05/04 08:00:20;;;;;;;14.45;3.47;;;12.30;99.90;;;;;;5065840;28;20164;-90
2021/05/04 08:02:45;;;;;;;18.77;3.67;;;12.40;99.90;;;;;;5072788;28;20224;-90
2021/05/04 08:05:12;;;;;;;20.95;3.00;;;12.60;99.90;;;;;;5054960;28;20168;-87
2021/05/04 08:07:37;;;;;;;20.27;3.10;;;12.70;99.90;;;;;;5055238;28;20179;-91
2021/05/04 08:10:05;;;;;;;14.20;2.78;;;12.30;99.90;;;;;;5056206;28;20536;-91
2021/05/04 08:12:30;;;;;;;16.27;3.95;;;12.00;99.90;;;;;;5036129;28;20168;-90
2021/05/04 08:14:56;;;;;;;24.55;3.80;;;11.90;99.90;;;;;;5036612;28;20172;-90
2021/05/04 08:17:24;;;;;;;30.30;3.63;;;12.00;99.90;;;;;;5057877;28;20231;-88
2021/05/04 08:19:50;;;;;;;26.23;3.78;;;12.00;99.90;;;;;;5082950;28;20195;-91
2021/05/04 08:22:16;;;;;;;25.38;4.35;;;12.30;99.90;;;;;;5071433;28;20513;-89
2021/05/04 08:24:42;;;;;;;18.33;3.75;;;12.40;99.90;;;;;;5056140;28;20187;-89
2021/05/04 08:27:07;;;;;;;20.88;3.38;;;12.30;99.90;;;;;;5056345;28;20221;-88
2021/05/04 08:29:34;;;;;;;26.77;4.10;;;12.20;99.90;;;;;;5088387;28;20167;-90
2021/05/04 08:32:03;;;;;;;18.65;4.28;;;12.00;99.90;;;;;;5038629;28;20701;-89
2021/05/04 08:34:33;;;;;;;19.25;2.97;;;12.00;99.90;;;;;;5050956;28;20216;-88
2021/05/04 08:37:00;;;;;;;20.50;3.28;;;12.10;99.90;;;;;;5068275;28;20560;-89
2021/05/04 08:39:26;;;;;;;26.00;3.67;;;12.20;99.90;;;;;;5036087;28;20251;-89
2021/05/04 08:41:52;;;;;;;27.20;3.40;;;12.50;99.90;;;;;;5057410;28;20258;-89
2021/05/04 08:44:20;;;;;;;24.65;3.47;;;12.50;99.90;;;;;;5068659;28;20206;-88
2021/05/04 08:46:47;;;;;;;18.15;3.38;;;12.80;99.90;;;;;;5068194;28;20190;-89
2021/05/04 08:49:14;;;;;;;25.00;3.33;;;13.30;99.90;;;;;;5089458;28;20166;-89
2021/05/04 08:51:42;;;;;;;10.88;2.83;;;13.20;99.90;;;;;;5073500;28;20179;-90
2021/05/04 08:54:09;;;;;;;19.77;3.38;;;13.40;99.90;;;;;;5056811;28;20203;-88
2021/05/04 08:56:35;;;;;;;24.67;3.55;;;13.70;99.90;;;;;;5054553;28;20547;-90
2021/05/04 08:59:04;;;;;;;16.73;3.10;;;13.90;99.90;;;;;;5055643;28;20262;-90
2021/05/04 09:01:30;;;;;;;21.42;3.33;;;13.60;99.90;;;;;;5055836;28;20168;-91
2021/05/04 09:04:02;;;;;;;16.52;2.55;;;13.60;99.90;;;;;;5055989;28;20275;-88
2021/05/04 09:06:32;;;;;;;11.05;3.05;;;14.10;99.90;;;;;;5055303;28;20627;-90
2021/05/04 09:09:09;;;;;;;11.48;2.70;;;14.10;99.90;;;;;;5056217;28;20168;-86
2021/05/04 09:17:06;;;;;;;11.02;2.10;;;14.60;99.90;;;;;;5054118;28;20211;-88
2021/05/04 09:21:54;;;;;;;17.75;3.97;;;14.70;99.90;;;;;;5054132;28;20266;-87
2021/05/04 09:24:30;;;;;;;19.08;2.42;;;14.10;99.90;;;;;;5053539;28;20180;-90
2021/05/04 09:27:09;;;;;;;19.00;2.25;;;13.60;99.90;;;;;;5053937;28;20171;-89
2021/05/04 09:29:38;;;;;;;16.50;2.47;;;13.40;99.90;;;;;;5054094;28;20538;-88
2021/05/04 09:32:21;;;;;;;29.33;2.95;;;13.20;99.90;;;;;;5053551;28;20176;-90
2021/05/04 09:34:48;;;;;;;19.60;2.28;;;13.00;99.90;;;;;;5034724;28;20210;-90
2021/05/04 09:37:22;;;;;;;15.20;2.42;;;12.90;99.90;;;;;;5085435;28;20176;-90
2021/05/04 09:39:47;;;;;;;12.95;2.33;;;13.10;99.90;;;;;;5033600;28;20263;-90
2021/05/04 09:42:13;;;;;;;9.48;2.38;;;13.60;99.90;;;;;;5046387;28;20250;-89
2021/05/04 09:44:41;;;;;;;11.10;2.25;;;13.70;99.90;;;;;;5054294;28;20171;-89
2021/05/04 09:47:08;;;;;;;7.30;1.77;;;13.40;99.90;;;;;;5053805;28;20207;-89
2021/05/04 09:49:36;;;;;;;19.23;2.35;;;13.40;99.90;;;;;;5053368;28;20195;-89
2021/05/04 09:52:25;;;;;;;13.02;2.92;;;13.60;99.90;;;;;;5053124;28;20187;-89
2021/05/04 09:54:52;;;;;;;19.63;2.60;;;13.50;99.90;;;;;;5053366;28;20671;-86
2021/05/04 09:57:33;;;;;;;10.93;2.70;;;13.50;99.90;;;;;;5053075;28;20179;-89
2021/05/04 09:59:59;;;;;;;11.63;1.80;;;13.30;99.90;;;;;;5053107;28;20175;-89
2021/05/04 10:02:25;;;;;;;12.85;2.05;;;13.20;99.90;;;;;;5036321;28;20168;-88
2021/05/04 10:04:54;;;;;;;14.38;2.30;;;13.10;99.90;;;;;;5036323;28;20186;-90
2021/05/04 10:07:23;;;;;;;13.45;2.80;;;13.30;99.90;;;;;;5036746;28;20179;-89
2021/05/04 10:09:50;;;;;;;10.98;2.47;;;14.30;99.90;;;;;;5070147;28;20172;-88
2021/05/04 10:12:20;;;;;;;10.13;2.05;;;14.20;99.90;;;;;;5075721;28;20236;-90
2021/05/04 10:14:48;;;;;;;9.43;2.30;;;14.50;99.90;;;;;;5076304;28;20191;-89
2021/05/04 10:17:17;;;;;;;10.95;1.50;;;14.90;99.90;;;;;;5052969;28;20168;-89
2021/05/04 10:19:43;;;;;;;15.80;1.85;;;14.80;99.90;;;;;;5053931;28;20293;-88
2021/05/04 10:22:12;;;;;;;10.48;2.33;;;14.40;99.90;;;;;;5052656;28;20224;-90
2021/05/04 10:24:40;;;;;;;12.95;2.42;;;14.10;99.90;;;;;;5034377;28;20180;-88
2021/05/04 10:27:08;;;;;;;16.08;2.53;;;14.10;99.90;;;;;;5045186;28;20168;-89
2021/05/04 10:29:37;;;;;;;16.38;2.67;;;14.00;99.90;;;;;;5054428;28;20235;-92
2021/05/04 10:32:05;;;;;;;17.08;2.72;;;13.60;99.90;;;;;;5062571;28;20541;-89
2021/05/04 10:34:35;;;;;;;8.63;2.17;;;13.50;99.90;;;;;;5056368;28;20199;-89
2021/05/04 10:37:02;;;;;;;12.02;1.60;;;13.70;99.90;;;;;;5058718;28;20171;-89
2021/05/04 10:39:39;;;;;;;11.55;1.77;;;13.70;99.90;;;;;;5052466;28;20167;-88
2021/05/04 10:42:07;;;;;;;12.75;2.30;;;13.80;99.90;;;;;;5036419;28;20262;-90
2021/05/04 10:44:54;;;;;;;7.72;1.75;;;14.10;99.90;;;;;;5054051;28;20175;-89
2021/05/04 10:47:50;;;;;;;8.63;2.08;;;14.10;99.90;;;;;;5052617;28;20654;-90
2021/05/04 10:50:42;;;;;;;13.23;2.08;;;14.10;99.90;;;;;;5033498;28;20226;-89
2021/05/04 10:53:08;;;;;;;9.80;1.90;;;13.70;99.90;;;;;;5049525;28;20353;-90
2021/05/04 10:55:52;;;;;;;5.20;1.60;;;13.60;99.90;;;;;;5052812;28;20262;-89
2021/05/04 10:58:21;;;;;;;6.55;1.40;;;13.80;99.90;;;;;;5053344;28;20179;-90
2021/05/04 11:00:51;;;;;;;19.67;2.33;;;14.10;99.90;;;;;;5053322;28;21017;-88
2021/05/04 11:06:07;;;;;;;8.75;2.00;;;14.00;99.90;;;;;;5053383;28;20600;-89
2021/05/04 11:08:42;;;;;;;7.95;0.93;;;14.20;99.90;;;;;;5052529;28;20178;-90
2021/05/04 11:11:25;;;;;;;3.65;1.35;;;14.40;99.90;;;;;;5053451;28;20185;-89
2021/05/04 11:13:53;;;;;;;5.55;1.70;;;14.50;99.90;;;;;;5056318;28;20262;-90
2021/05/04 11:16:35;;;;;;;10.80;1.70;;;15.00;99.90;;;;;;5052700;28;20175;-89
2021/05/04 11:19:22;;;;;;;8.93;1.85;;;15.00;99.90;;;;;;5033808;28;20176;-90
2021/05/04 11:21:50;;;;;;;5.93;1.73;;;15.10;99.90;;;;;;5032571;28;20288;-90
2021/05/04 11:24:18;;;;;;;10.73;1.70;;;15.40;99.90;;;;;;5033835;28;20537;-91
2021/05/04 11:26:48;;;;;;;11.32;1.92;;;16.10;99.90;;;;;;5047683;28;20179;-87
2021/05/04 11:29:18;;;;;;;6.93;1.33;;;16.60;99.90;;;;;;5052319;28;20167;-90
2021/05/04 11:31:46;;;;;;;10.60;1.85;;;16.50;99.90;;;;;;5052496;28;20190;-90
2021/05/04 11:34:35;;;;;;;4.65;1.80;;;16.90;99.90;;;;;;5053731;28;20207;-91
2021/05/04 11:37:02;;;;;;;11.13;1.77;;;17.40;99.90;;;;;;5053530;28;20534;-91
2021/05/04 11:39:28;;;;;;;7.88;1.90;;;17.60;99.90;;;;;;5052013;28;20182;-90
2021/05/04 11:41:59;;;;;;;7.32;2.53;;;16.90;99.90;;;;;;5056218;28;20254;-91
2021/05/04 11:44:33;;;;;;;7.43;1.67;;;16.40;99.90;;;;;;5056029;28;20292;-91
2021/05/04 11:47:18;;;;;;;10.45;2.00;;;16.20;99.90;;;;;;5057251;28;20187;-87
2021/05/04 11:49:44;;;;;;;9.93;1.40;;;16.60;99.90;;;;;;5055943;28;20631;-88
2021/05/04 11:52:10;;;;;;;4.32;1.50;;;16.70;99.90;;;;;;5055773;28;20167;-90
2021/05/04 11:54:36;;;;;;;4.75;1.30;;;15.80;99.90;;;;;;5039133;28;20203;-86
2021/05/04 11:57:03;;;;;;;12.95;1.58;;;15.40;99.90;;;;;;5055608;28;20271;-91
2021/05/04 11:59:29;;;;;;;10.60;1.52;;;15.10;99.90;;;;;;5056689;28;20647;-90
2021/05/04 12:01:55;;;;;;;7.85;1.60;;;15.40;99.90;;;;;;5057135;28;20206;-92
2021/05/04 12:04:51;;;;;;;9.07;1.80;;;15.80;99.90;;;;;;5055512;28;20274;-91
2021/05/04 12:07:35;;;;;;;10.45;1.88;;;16.50;99.90;;;;;;5056345;28;20164;-88
2021/05/04 12:10:18;;;;;;;8.13;1.58;;;16.90;99.90;;;;;;5055758;28;20179;-88
2021/05/04 12:12:50;;;;;;;11.90;1.65;;;17.00;99.90;;;;;;5055443;28;20240;-88
2021/05/04 12:15:19;;;;;;;8.48;1.75;;;17.30;99.90;;;;;;5055468;28;20171;-88
2021/05/04 12:17:56;;;;;;;11.77;1.58;;;17.50;99.90;;;;;;5055826;28;20188;-91
2021/05/04 12:20:24;;;;;;;6.20;1.42;;;16.60;99.90;;;;;;5055370;28;20171;-88
2021/05/04 12:22:58;;;;;;;9.23;1.73;;;16.90;99.90;;;;;;5055308;28;20263;-89
2021/05/04 12:25:54;;;;;;;7.45;1.33;;;16.80;99.90;;;;;;5055219;28;20177;-89
2021/05/04 12:28:26;;;;;;;5.38;1.67;;;16.60;99.90;;;;;;5055649;28;20164;-89
2021/05/04 12:31:04;;;;;;;7.78;1.75;;;16.30;99.90;;;;;;5055040;28;20194;-89
2021/05/04 12:33:30;;;;;;;9.77;1.52;;;16.90;99.90;;;;;;5054771;28;20202;-89
2021/05/04 12:36:11;;;;;;;7.05;1.48;;;16.90;99.90;;;;;;5059110;28;20186;-90
2021/05/04 12:39:08;;;;;;;4.90;1.75;;;16.70;99.90;;;;;;5070318;28;20181;-89
2021/05/04 12:41:35;;;;;;;5.00;1.40;;;16.40;99.90;;;;;;5080059;28;20187;-91
2021/05/04 12:44:09;;;;;;;7.13;1.30;;;16.10;99.90;;;;;;5066125;28;20266;-86
2021/05/04 12:46:40;;;;;;;8.63;1.85;;;15.90;99.90;;;;;;5054803;28;20168;-89
2021/05/04 12:49:05;;;;;;;7.05;1.85;;;16.00;99.90;;;;;;5055968;28;20155;-90
2021/05/04 12:51:33;;;;;;;5.63;1.17;;;16.00;99.90;;;;;;5054430;28;20182;-88
2021/05/04 12:54:17;;;;;;;9.48;1.23;;;15.80;99.90;;;;;;5042839;28;20249;-89
2021/05/04 12:56:44;;;;;;;3.35;0.95;;;15.70;99.90;;;;;;5073895;28;20186;-90
2021/05/04 12:59:11;;;;;;;5.88;2.00;;;15.70;99.90;;;;;;5078778;28;20184;-88